Time;durP1;ratioP1;P1;durP2;ratioP2;P2;SDS_P1;SDS_P2;PMS_P1;PMS_P2;Temp;Humidity;BMP_temperature;BMP_pressure;BME280_temperature;BME280_humidity;BME280_pressure;Samples;Min_cycle;Max_cycle;Signal;HPM_P1;HPM_P2
2022/08/27 00:02:38;;;;;;;10.95;1.48;;;20.10;66.80;;;;;;9177982;19;20077;-71
2022/08/27 00:05:44;;;;;;;4.03;1.40;;;20.10;66.80;;;;;;9177726;19;20023;-71
2022/08/27 00:08:53;;;;;;;8.70;1.35;;;20.10;66.80;;;;;;9178766;19;20015;-71
2022/08/27 00:11:59;;;;;;;11.13;1.80;;;20.10;66.90;;;;;;9184270;19;20038;-71
2022/08/27 00:15:04;;;;;;;5.28;1.73;;;20.10;66.80;;;;;;9189105;19;20423;-69
2022/08/27 00:18:09;;;;;;;5.13;1.52;;;20.10;66.80;;;;;;9187647;19;20496;-70
2022/08/27 00:21:15;;;;;;;13.30;2.00;;;20.00;67.40;;;;;;9184186;19;20018;-71
2022/08/27 00:24:23;;;;;;;7.32;1.63;;;20.00;66.70;;;;;;9187417;19;20014;-71
2022/08/27 00:27:28;;;;;;;5.47;1.77;;;20.00;66.80;;;;;;9183297;19;20428;-72
2022/08/27 00:30:33;;;;;;;6.47;1.73;;;19.90;66.70;;;;;;9184886;19;20460;-71
2022/08/27 00:33:38;;;;;;;9.48;1.90;;;19.90;66.70;;;;;;9187236;19;20022;-71
2022/08/27 00:36:44;;;;;;;8.55;2.10;;;19.90;66.70;;;;;;9187050;19;20082;-72
2022/08/27 00:39:52;;;;;;;8.18;2.70;;;19.90;66.70;;;;;;9185203;19;20014;-70
2022/08/27 00:42:57;;;;;;;9.10;1.88;;;19.90;66.70;;;;;;9185034;19;20618;-71
2022/08/27 00:46:06;;;;;;;10.93;1.83;;;19.90;66.70;;;;;;9187177;19;20033;-70
2022/08/27 00:49:17;;;;;;;3.55;1.58;;;19.90;66.70;;;;;;9185738;19;20111;-71
2022/08/27 00:52:27;;;;;;;5.60;1.48;;;19.90;66.70;;;;;;9187005;19;20022;-72
2022/08/27 00:55:40;;;;;;;6.28;1.35;;;19.80;66.70;;;;;;9185056;19;20010;-71
2022/08/27 00:58:48;;;;;;;6.13;1.58;;;19.80;66.70;;;;;;9185093;19;20029;-72
2022/08/27 01:05:14;;;;;;;3.88;1.23;;;19.80;67.30;;;;;;9185435;19;20022;-72
2022/08/27 01:08:23;;;;;;;4.78;1.27;;;19.80;66.70;;;;;;9185630;19;20013;-70
2022/08/27 01:11:32;;;;;;;6.53;1.48;;;19.80;66.70;;;;;;9181848;19;20014;-71
2022/08/27 01:14:37;;;;;;;4.60;1.80;;;19.80;66.70;;;;;;9179951;19;20014;-70
2022/08/27 01:17:42;;;;;;;11.23;1.55;;;19.80;66.70;;;;;;9181269;19;20015;-72
2022/08/27 01:20:51;;;;;;;7.28;2.33;;;19.80;66.70;;;;;;9184323;19;20048;-71
2022/08/27 01:24:03;;;;;;;6.40;1.80;;;19.70;66.60;;;;;;9182724;19;20003;-72
2022/08/27 01:27:15;;;;;;;4.93;1.75;;;19.70;66.70;;;;;;9180845;19;20014;-69
2022/08/27 01:30:22;;;;;;;11.93;1.65;;;19.70;66.70;;;;;;9182421;19;20021;-70
2022/08/27 01:33:27;;;;;;;5.90;1.65;;;19.70;66.70;;;;;;9184180;19;20031;-69
2022/08/27 01:36:32;;;;;;;7.10;1.58;;;19.70;66.70;;;;;;9184267;19;20015;-71
2022/08/27 01:39:40;;;;;;;7.03;1.90;;;19.70;66.80;;;;;;9183680;19;20085;-69
2022/08/27 01:42:50;;;;;;;7.18;1.65;;;19.70;66.70;;;;;;9184646;19;20018;-71
2022/08/27 01:45:55;;;;;;;5.07;1.75;;;19.60;66.70;;;;;;9182012;19;20014;-72
2022/08/27 01:49:00;;;;;;;7.45;1.95;;;19.60;66.70;;;;;;9178411;19;20467;-71
2022/08/27 01:52:06;;;;;;;8.48;1.88;;;19.60;66.60;;;;;;9177257;19;20021;-69
2022/08/27 01:55:14;;;;;;;11.18;3.17;;;19.60;66.70;;;;;;9179388;19;20010;-68
2022/08/27 01:58:23;;;;;;;8.18;1.92;;;19.60;66.60;;;;;;9177963;19;20030;-69
2022/08/27 02:01:29;;;;;;;4.85;1.85;;;19.50;66.60;;;;;;9177943;19;20490;-72
2022/08/27 02:04:35;;;;;;;7.85;1.85;;;19.50;66.60;;;;;;9178933;19;20026;-70
2022/08/27 02:07:41;;;;;;;8.35;1.98;;;19.50;66.60;;;;;;9177907;19;20027;-72
2022/08/27 02:10:48;;;;;;;7.25;1.75;;;19.50;66.60;;;;;;9180738;19;20614;-71
2022/08/27 02:13:55;;;;;;;6.93;3.00;;;19.50;66.60;;;;;;9180141;19;20590;-70
2022/08/27 02:17:01;;;;;;;7.18;1.70;;;19.50;66.60;;;;;;9182867;19;20015;-71
2022/08/27 02:20:08;;;;;;;6.47;2.05;;;19.40;66.50;;;;;;9182973;19;20015;-71
2022/08/27 02:23:13;;;;;;;4.45;1.63;;;19.40;66.60;;;;;;9180863;19;20014;-70
2022/08/27 02:26:19;;;;;;;7.00;1.98;;;19.40;66.60;;;;;;9182788;19;20014;-70
2022/08/27 02:29:27;;;;;;;10.57;2.30;;;19.40;66.60;;;;;;9181885;19;20022;-71
2022/08/27 02:32:32;;;;;;;6.35;1.75;;;19.30;66.60;;;;;;9181293;19;20024;-71
2022/08/27 02:35:41;;;;;;;5.72;1.95;;;19.30;66.60;;;;;;9181594;19;20057;-72
2022/08/27 02:38:46;;;;;;;7.28;2.15;;;19.30;66.60;;;;;;9181676;19;20639;-71
2022/08/27 02:41:51;;;;;;;6.55;2.25;;;19.30;66.60;;;;;;9179858;19;20014;-70
2022/08/27 02:44:59;;;;;;;7.03;1.80;;;19.20;66.60;;;;;;9182266;19;20014;-71
2022/08/27 02:48:04;;;;;;;6.03;1.90;;;19.20;66.60;;;;;;9178759;19;20025;-69
2022/08/27 02:51:10;;;;;;;5.95;2.22;;;19.20;66.70;;;;;;9179155;19;20018;-70
2022/08/27 02:54:15;;;;;;;9.70;1.98;;;19.10;66.70;;;;;;9178490;19;20082;-70
2022/08/27 02:57:21;;;;;;;6.75;1.92;;;19.10;66.70;;;;;;9180529;19;20014;-70
2022/08/27 03:00:29;;;;;;;5.88;2.00;;;19.10;66.70;;;;;;9180187;19;20007;-71
2022/08/27 03:03:34;;;;;;;10.02;2.75;;;19.10;66.80;;;;;;9179371;19;20011;-72
2022/08/27 03:06:43;;;;;;;10.10;2.28;;;19.00;66.80;;;;;;9180854;19;20090;-72
2022/08/27 03:09:48;;;;;;;9.48;2.42;;;19.00;67.50;;;;;;9177603;19;20014;-72
2022/08/27 03:12:54;;;;;;;8.30;2.40;;;19.00;66.80;;;;;;9180000;19;20074;-71
2022/08/27 03:16:01;;;;;;;10.68;3.72;;;19.00;66.90;;;;;;9179886;19;20017;-71
2022/08/27 03:19:05;;;;;;;7.03;2.28;;;19.00;66.90;;;;;;9179380;19;20011;-70
2022/08/27 03:22:11;;;;;;;2.60;1.80;;;18.90;66.90;;;;;;9180409;19;20074;-72
2022/08/27 03:25:17;;;;;;;9.50;2.70;;;18.90;67.00;;;;;;9179956;19;20014;-72
2022/08/27 03:28:24;;;;;;;5.38;2.60;;;18.80;66.90;;;;;;9175684;19;20024;-71
2022/08/27 03:31:32;;;;;;;4.78;2.42;;;18.80;67.00;;;;;;9178273;19;20015;-71
2022/08/27 03:34:37;;;;;;;9.15;2.20;;;18.80;67.00;;;;;;9178622;19;20018;-72
2022/08/27 03:37:42;;;;;;;10.90;2.78;;;18.80;67.10;;;;;;9179462;19;20019;-72
2022/08/27 03:40:48;;;;;;;8.43;2.63;;;18.70;67.10;;;;;;9177228;19;20014;-71
2022/08/27 03:43:53;;;;;;;6.65;2.60;;;18.70;67.20;;;;;;9178490;19;20010;-71
2022/08/27 03:47:02;;;;;;;9.07;2.50;;;18.60;67.10;;;;;;9187412;19;20037;-72
2022/08/27 03:50:10;;;;;;;10.07;3.22;;;18.60;67.20;;;;;;9188221;19;20425;-69
2022/08/27 03:53:15;;;;;;;9.65;2.75;;;18.60;67.30;;;;;;9188914;19;20019;-72
2022/08/27 03:56:20;;;;;;;5.30;2.72;;;18.50;67.20;;;;;;9188657;19;20056;-69
2022/08/27 03:59:25;;;;;;;9.07;3.25;;;18.50;67.50;;;;;;9189443;19;20490;-70
2022/08/27 04:02:33;;;;;;;6.88;2.80;;;18.50;67.30;;;;;;9188758;19;20021;-70
2022/08/27 04:05:38;;;;;;;7.10;2.47;;;18.40;67.90;;;;;;9181044;19;20022;-70
2022/08/27 04:08:43;;;;;;;5.63;2.60;;;18.40;67.40;;;;;;9187848;19;20034;-67
2022/08/27 04:11:48;;;;;;;5.03;2.78;;;18.30;67.30;;;;;;9184566;19;20044;-70
2022/08/27 04:14:53;;;;;;;6.55;2.58;;;18.30;67.40;;;;;;9186884;19;20086;-70
2022/08/27 04:18:01;;;;;;;9.02;3.03;;;18.20;67.40;;;;;;9186556;19;20007;-70
2022/08/27 04:21:10;;;;;;;11.60;3.10;;;18.20;67.50;;;;;;9186646;19;20017;-70
2022/08/27 04:24:15;;;;;;;7.20;2.92;;;18.20;67.50;;;;;;9187188;19;20014;-71
2022/08/27 04:27:20;;;;;;;6.75;3.15;;;18.10;67.50;;;;;;9182598;19;20870;-69
2022/08/27 04:30:25;;;;;;;9.00;2.72;;;18.10;67.60;;;;;;9185922;19;20468;-70
2022/08/27 04:33:33;;;;;;;9.20;2.80;;;18.10;67.60;;;;;;9185773;19;20555;-71
2022/08/27 04:36:38;;;;;;;7.40;3.13;;;18.00;67.70;;;;;;9185933;19;20019;-70
2022/08/27 04:39:43;;;;;;;14.63;3.20;;;18.00;67.70;;;;;;9184460;19;20021;-71
2022/08/27 04:42:54;;;;;;;7.82;3.45;;;17.90;67.70;;;;;;9186132;19;20022;-71
2022/08/27 04:45:59;;;;;;;5.20;2.80;;;17.90;67.80;;;;;;9185501;19;20460;-70
2022/08/27 04:49:08;;;;;;;7.35;2.80;;;17.90;67.80;;;;;;9185621;19;20025;-69
2022/08/27 04:52:17;;;;;;;9.30;2.85;;;17.80;67.90;;;;;;9183115;19;20030;-70
2022/08/27 04:55:22;;;;;;;5.97;2.83;;;17.80;68.00;;;;;;9185150;19;20019;-70
2022/08/27 04:58:28;;;;;;;7.45;2.70;;;17.80;68.00;;;;;;9184005;19;20018;-70
2022/08/27 05:01:33;;;;;;;9.13;3.58;;;17.80;68.00;;;;;;9182407;19;20014;-70
2022/08/27 05:04:43;;;;;;;8.55;3.22;;;17.70;68.10;;;;;;9183636;19;20023;-71
2022/08/27 05:07:48;;;;;;;10.45;3.10;;;17.70;68.10;;;;;;9183396;19;20022;-71
2022/08/27 05:10:53;;;;;;;10.38;3.03;;;17.70;68.10;;;;;;9183020;19;20048;-70
2022/08/27 05:13:58;;;;;;;6.90;2.95;;;17.70;68.20;;;;;;9183749;19;20014;-70
2022/08/27 05:17:03;;;;;;;5.25;3.13;;;17.70;68.20;;;;;;9183998;19;20015;-69
2022/08/27 05:20:12;;;;;;;13.25;3.38;;;17.70;68.30;;;;;;9183912;19;20341;-70
2022/08/27 05:23:19;;;;;;;8.48;3.05;;;17.70;68.40;;;;;;9183821;19;20018;-70
2022/08/27 05:26:25;;;;;;;12.27;3.75;;;17.70;68.40;;;;;;9180357;19;20010;-72
2022/08/27 05:29:30;;;;;;;7.50;2.97;;;17.70;68.40;;;;;;9183291;19;20097;-72
2022/08/27 05:32:35;;;;;;;9.30;3.10;;;17.70;68.50;;;;;;9181742;19;20026;-73
2022/08/27 05:35:45;;;;;;;7.20;3.10;;;17.70;68.50;;;;;;9181601;19;20022;-72
2022/08/27 05:38:51;;;;;;;10.55;4.00;;;17.70;68.50;;;;;;9181500;19;20357;-71
2022/08/27 05:41:58;;;;;;;9.07;3.72;;;17.60;68.50;;;;;;9182793;19;20025;-72
2022/08/27 05:45:04;;;;;;;9.45;3.30;;;17.60;68.60;;;;;;9183126;19;20020;-71
2022/08/27 05:48:10;;;;;;;8.00;3.45;;;17.70;68.60;;;;;;9182708;19;20011;-73
2022/08/27 05:51:20;;;;;;;11.52;4.18;;;17.70;68.70;;;;;;9182497;19;20022;-72
2022/08/27 05:54:29;;;;;;;12.02;3.38;;;17.70;68.80;;;;;;9181910;19;20705;-72
2022/08/27 05:57:34;;;;;;;7.40;3.80;;;17.70;68.70;;;;;;9180301;19;20057;-73
2022/08/27 06:03:57;;;;;;;9.13;2.90;;;17.70;68.80;;;;;;9182848;19;20014;-73
2022/08/27 06:07:07;;;;;;;4.90;3.05;;;17.70;68.80;;;;;;9179696;19;20094;-72
2022/08/27 06:10:14;;;;;;;10.90;3.40;;;17.80;68.90;;;;;;9180184;19;20048;-73
2022/08/27 06:13:19;;;;;;;6.53;2.97;;;17.80;68.90;;;;;;9180249;19;20018;-73
2022/08/27 06:16:25;;;;;;;6.05;3.22;;;17.90;69.00;;;;;;9181353;19;20017;-72
2022/08/27 06:19:30;;;;;;;8.95;3.55;;;17.90;69.00;;;;;;9177054;19;20011;-73
2022/08/27 06:22:38;;;;;;;9.23;3.75;;;18.00;69.00;;;;;;9174216;19;20037;-72
2022/08/27 06:25:43;;;;;;;11.77;3.70;;;18.10;69.10;;;;;;9175206;19;20014;-74
2022/08/27 06:28:50;;;;;;;8.68;3.67;;;18.20;69.00;;;;;;9174625;19;20788;-72
2022/08/27 06:31:55;;;;;;;15.15;3.97;;;18.30;69.00;;;;;;9174695;19;20022;-72
2022/08/27 06:35:00;;;;;;;5.95;3.45;;;18.40;69.00;;;;;;9181075;19;20018;-72
2022/08/27 06:38:08;;;;;;;12.20;3.78;;;18.50;69.00;;;;;;9178372;19;20029;-72
2022/08/27 06:41:15;;;;;;;12.18;3.25;;;18.60;69.00;;;;;;9175040;19;20106;-72
2022/08/27 06:44:27;;;;;;;;;;;18.70;69.00;;;;;;9180258;19;20015;-72
2022/08/27 06:47:33;;;;;;;8.77;3.45;;;18.80;68.80;;;;;;9180133;19;20321;-72
2022/08/27 06:50:42;;;;;;;6.18;2.60;;;18.90;68.60;;;;;;9179102;19;20015;-73
2022/08/27 06:53:51;;;;;;;7.60;2.70;;;19.10;68.70;;;;;;9178029;19;20026;-71
2022/08/27 06:56:59;;;;;;;9.30;2.13;;;19.30;68.70;;;;;;9177602;19;20013;-73
2022/08/27 07:00:05;;;;;;;6.70;2.08;;;19.40;68.60;;;;;;9180440;19;20077;-74
2022/08/27 07:03:11;;;;;;;7.97;1.90;;;19.60;68.50;;;;;;9180415;19;20018;-72
2022/08/27 07:06:17;;;;;;;5.07;1.90;;;19.70;68.30;;;;;;9178689;19;20026;-74
2022/08/27 07:09:24;;;;;;;7.55;1.88;;;19.90;68.20;;;;;;9180798;19;20010;-69
2022/08/27 07:12:29;;;;;;;9.15;2.83;;;20.00;68.10;;;;;;9179043;19;20006;-68
2022/08/27 07:15:35;;;;;;;3.65;1.52;;;20.20;67.90;;;;;;9178913;19;20619;-69
2022/08/27 07:18:42;;;;;;;9.15;1.60;;;20.40;67.80;;;;;;9178379;19;20029;-69
2022/08/27 07:21:47;;;;;;;4.97;1.15;;;20.50;67.60;;;;;;9178036;19;20018;-71
2022/08/27 07:24:55;;;;;;;7.30;1.70;;;20.60;67.50;;;;;;9179689;19;20029;-69
2022/08/27 07:28:01;;;;;;;6.53;1.58;;;20.70;67.30;;;;;;9175054;19;20078;-69
2022/08/27 07:31:07;;;;;;;5.90;1.80;;;20.90;67.10;;;;;;9178770;19;20023;-70
2022/08/27 07:34:13;;;;;;;5.07;1.45;;;21.00;67.00;;;;;;9175688;19;20747;-70
2022/08/27 07:37:18;;;;;;;3.33;1.35;;;21.10;66.70;;;;;;9179137;19;20023;-70
2022/08/27 07:40:26;;;;;;;2.88;1.27;;;21.20;67.00;;;;;;9176660;19;20341;-74
2022/08/27 07:46:50;;;;;;;4.53;1.33;;;21.40;66.00;;;;;;9176029;19;20009;-78
2022/08/27 07:49:55;;;;;;;8.63;1.20;;;21.40;65.70;;;;;;9179204;19;20090;-72
2022/08/27 07:53:00;;;;;;;6.85;1.33;;;21.40;65.60;;;;;;9178728;19;20011;-73
2022/08/27 07:56:09;;;;;;;8.25;2.58;;;21.50;65.50;;;;;;9180447;19;20041;-72
2022/08/27 07:59:14;;;;;;;3.55;1.40;;;21.60;65.20;;;;;;9180104;19;20476;-71
2022/08/27 08:02:19;;;;;;;6.45;1.40;;;21.60;65.20;;;;;;9180512;19;21848;-67
2022/08/27 08:05:24;;;;;;;5.72;1.10;;;21.60;64.90;;;;;;9169685;19;20015;-69
2022/08/27 08:08:29;;;;;;;9.73;1.33;;;21.70;64.80;;;;;;9172263;19;20024;-70
2022/08/27 08:11:37;;;;;;;10.35;1.70;;;21.70;64.70;;;;;;9174690;19;20382;-70
2022/08/27 08:14:42;;;;;;;6.45;1.77;;;21.70;64.50;;;;;;9169730;19;20014;-70
2022/08/27 08:17:48;;;;;;;4.05;1.27;;;21.80;64.50;;;;;;9171658;19;20022;-69
2022/08/27 08:20:53;;;;;;;4.65;1.48;;;21.80;64.50;;;;;;9172099;19;20019;-71
2022/08/27 08:24:02;;;;;;;6.35;1.63;;;21.80;64.40;;;;;;9174760;19;20078;-70
2022/08/27 08:27:10;;;;;;;4.50;1.20;;;21.90;64.40;;;;;;9165751;19;20093;-69
2022/08/27 08:30:16;;;;;;;7.07;1.65;;;21.90;64.20;;;;;;9176362;19;20086;-70
2022/08/27 08:33:21;;;;;;;3.28;1.27;;;22.00;64.20;;;;;;9178633;19;20014;-69
2022/08/27 08:36:26;;;;;;;6.60;1.13;;;22.00;64.20;;;;;;9175534;19;20121;-69
2022/08/27 08:39:31;;;;;;;5.43;1.20;;;22.10;64.20;;;;;;9182275;19;20018;-71
2022/08/27 08:42:46;;;;;;;6.93;1.33;;;22.20;64.00;;;;;;9177573;19;20037;-70
2022/08/27 08:45:56;;;;;;;4.75;1.27;;;22.40;63.70;;;;;;9179046;19;20098;-67
2022/08/27 08:49:09;;;;;;;4.18;1.40;;;22.40;63.50;;;;;;9180752;19;20031;-71
2022/08/27 08:52:29;;;;;;;9.57;1.50;;;22.60;63.30;;;;;;9180299;19;20484;-69
2022/08/27 08:55:42;;;;;;;8.18;1.50;;;22.70;63.10;;;;;;9180020;19;20476;-69
2022/08/27 08:58:54;;;;;;;4.05;1.30;;;22.70;62.90;;;;;;9178238;19;20023;-71
2022/08/27 09:02:00;;;;;;;3.33;1.02;;;22.70;62.70;;;;;;9178116;19;20319;-69
2022/08/27 09:05:08;;;;;;;3.13;1.25;;;22.70;62.60;;;;;;9176770;19;20055;-69
2022/08/27 09:08:19;;;;;;;7.25;1.58;;;22.70;62.50;;;;;;9178072;19;20491;-69
2022/08/27 09:11:51;;;;;;;5.32;1.48;;;22.70;62.40;;;;;;9176930;19;20026;-68
2022/08/27 09:15:03;;;;;;;5.20;1.25;;;22.70;62.30;;;;;;9178608;19;20014;-71
2022/08/27 09:18:12;;;;;;;5.45;1.50;;;22.70;62.20;;;;;;9183422;19;20022;-70
2022/08/27 09:21:27;;;;;;;6.40;1.50;;;22.70;62.30;;;;;;9183867;19;20476;-71
2022/08/27 09:24:42;;;;;;;6.75;1.20;;;22.70;62.30;;;;;;9185319;19;20018;-69
2022/08/27 09:27:48;;;;;;;4.00;1.48;;;22.70;62.00;;;;;;9177788;19;20018;-72
2022/08/27 09:30:57;;;;;;;4.43;1.20;;;22.80;62.00;;;;;;9179084;19;20082;-71
2022/08/27 09:34:02;;;;;;;8.55;1.58;;;22.90;61.90;;;;;;9180486;19;20547;-71
2022/08/27 09:37:10;;;;;;;4.53;1.10;;;22.90;61.70;;;;;;9182999;19;20030;-70
2022/08/27 09:40:23;;;;;;;6.63;1.20;;;23.00;61.60;;;;;;9183295;19;20003;-69
2022/08/27 09:43:31;;;;;;;3.40;1.00;;;23.10;61.40;;;;;;9175824;19;20015;-68
2022/08/27 09:46:39;;;;;;;7.97;1.48;;;23.20;61.30;;;;;;9179374;19;20017;-69
2022/08/27 09:49:44;;;;;;;3.83;1.25;;;23.30;61.10;;;;;;9179355;19;20697;-69
2022/08/27 09:52:55;;;;;;;2.65;1.23;;;23.40;60.90;;;;;;9177733;19;20018;-69
2022/08/27 09:56:02;;;;;;;6.30;1.20;;;23.50;60.70;;;;;;9178442;19;20779;-73
2022/08/27 09:59:09;;;;;;;9.38;1.30;;;23.60;60.50;;;;;;9184174;19;20056;-72
2022/08/27 10:02:23;;;;;;;7.88;1.73;;;23.70;60.30;;;;;;9182798;19;20019;-74
2022/08/27 10:05:31;;;;;;;8.27;1.50;;;23.90;60.00;;;;;;9184324;19;20010;-71
2022/08/27 10:08:42;;;;;;;5.15;1.58;;;24.00;59.90;;;;;;9184048;19;20480;-73
2022/08/27 10:12:07;;;;;;;5.93;1.60;;;24.20;59.70;;;;;;9184377;19;20502;-72
2022/08/27 10:15:15;;;;;;;3.03;1.30;;;24.30;59.30;;;;;;9180795;19;20026;-72
2022/08/27 10:18:36;;;;;;;5.95;1.52;;;24.30;59.40;;;;;;9182202;19;20086;-71
2022/08/27 10:21:48;;;;;;;2.47;0.98;;;24.40;59.00;;;;;;9180520;19;20034;-68
2022/08/27 10:25:04;;;;;;;4.20;1.30;;;24.40;59.00;;;;;;9180919;19;20011;-69
2022/08/27 10:28:24;;;;;;;3.45;1.38;;;24.40;58.70;;;;;;9172634;19;20021;-74
2022/08/27 10:31:38;;;;;;;4.63;1.60;;;24.40;58.60;;;;;;9178330;19;20025;-74
2022/08/27 10:34:57;;;;;;;5.53;1.40;;;24.40;58.60;;;;;;9179309;19;20500;-75
2022/08/27 10:38:12;;;;;;;9.63;2.35;;;24.40;58.30;;;;;;9179990;19;20530;-74
2022/08/27 10:41:20;;;;;;;12.02;1.73;;;24.40;58.30;;;;;;9180304;19;20018;-71
2022/08/27 10:44:45;;;;;;;9.63;1.75;;;24.50;58.30;;;;;;9181857;19;20024;-73
2022/08/27 10:48:01;;;;;;;4.88;1.00;;;24.40;58.00;;;;;;9181515;19;20015;-71
2022/08/27 10:51:16;;;;;;;2.40;0.90;;;24.40;58.00;;;;;;9182339;19;20016;-70
2022/08/27 10:54:29;;;;;;;3.15;1.10;;;24.40;58.00;;;;;;9175633;19;20020;-69
2022/08/27 10:58:12;;;;;;;4.40;1.02;;;24.40;57.90;;;;;;9172886;19;20030;-69
2022/08/27 11:01:23;;;;;;;7.20;1.40;;;24.40;57.70;;;;;;9177172;19;20026;-69
2022/08/27 11:04:32;;;;;;;11.80;1.58;;;24.40;57.90;;;;;;9172781;19;20056;-69
2022/08/27 11:07:43;;;;;;;8.95;1.40;;;24.40;57.80;;;;;;9174665;19;20018;-70
2022/08/27 11:10:50;;;;;;;12.27;6.13;;;24.40;57.70;;;;;;9174933;19;20015;-69
2022/08/27 11:13:58;;;;;;;26.33;13.68;;;24.40;58.40;;;;;;9175969;19;20010;-69
2022/08/27 11:17:10;;;;;;;20.25;9.35;;;24.40;57.80;;;;;;9174355;19;20018;-70
2022/08/27 11:20:20;;;;;;;14.75;7.07;;;24.30;57.60;;;;;;9177916;19;20023;-69
2022/08/27 11:23:33;;;;;;;36.30;16.50;;;24.30;57.60;;;;;;9177063;19;20027;-69
2022/08/27 11:26:42;;;;;;;15.18;6.35;;;24.30;57.50;;;;;;9172990;19;20006;-70
2022/08/27 11:29:54;;;;;;;11.07;4.57;;;24.30;57.60;;;;;;9176948;19;20022;-71
2022/08/27 11:33:11;;;;;;;10.23;3.30;;;24.20;57.50;;;;;;9177837;19;20018;-71
2022/08/27 11:36:36;;;;;;;9.18;2.33;;;24.30;57.70;;;;;;9177400;19;20043;-77
2022/08/27 11:40:01;;;;;;;6.25;2.25;;;24.20;57.50;;;;;;9182174;19;20015;-72
2022/08/27 11:43:12;;;;;;;8.68;1.73;;;24.20;57.60;;;;;;9179993;19;20018;-71
2022/08/27 11:46:28;;;;;;;4.97;1.77;;;24.20;57.70;;;;;;9178741;19;20029;-71
2022/08/27 11:49:43;;;;;;;9.52;1.40;;;24.20;57.60;;;;;;9179967;19;20015;-74
2022/08/27 11:52:58;;;;;;;7.47;1.52;;;24.20;57.60;;;;;;9179930;19;20017;-74
2022/08/27 11:56:17;;;;;;;5.05;1.17;;;24.20;57.50;;;;;;9178806;19;20022;-71
2022/08/27 11:59:29;;;;;;;7.85;1.65;;;24.20;57.30;;;;;;9179183;19;20014;-71
2022/08/27 12:02:35;;;;;;;6.07;1.30;;;24.20;57.40;;;;;;9172065;19;20018;-71
2022/08/27 12:05:44;;;;;;;11.93;1.58;;;24.20;57.30;;;;;;9174575;19;20085;-70
2022/08/27 12:08:49;;;;;;;5.93;1.58;;;24.20;57.20;;;;;;9183541;19;20050;-69
2022/08/27 12:12:04;;;;;;;8.98;1.80;;;24.20;57.30;;;;;;9184570;19;20014;-70
2022/08/27 12:15:16;;;;;;;8.43;1.48;;;24.20;57.00;;;;;;9172788;19;20054;-68
2022/08/27 12:18:38;;;;;;;10.88;1.92;;;24.20;57.00;;;;;;9179390;19;20078;-70
2022/08/27 12:21:53;;;;;;;7.35;1.20;;;24.30;56.90;;;;;;9180436;19;20007;-69
2022/08/27 12:24:59;;;;;;;10.95;1.95;;;24.30;56.80;;;;;;9180320;19;20010;-69
2022/08/27 12:28:09;;;;;;;7.68;1.33;;;24.30;56.90;;;;;;9179624;19;20025;-70
2022/08/27 12:31:21;;;;;;;8.60;1.30;;;24.30;56.70;;;;;;9176412;19;20022;-67
2022/08/27 12:34:28;;;;;;;4.28;1.27;;;24.40;56.70;;;;;;9129763;19;20097;-71
2022/08/27 12:37:37;;;;;;;9.38;1.73;;;24.50;56.70;;;;;;9177974;19;20751;-69
2022/08/27 12:40:48;;;;;;;7.63;1.52;;;24.60;56.60;;;;;;9145668;19;20022;-72
2022/08/27 12:44:04;;;;;;;8.73;1.48;;;24.60;56.50;;;;;;9180600;19;20522;-67
2022/08/27 12:47:15;;;;;;;4.35;1.30;;;24.60;56.30;;;;;;9179681;19;20026;-71
2022/08/27 12:50:27;;;;;;;10.43;1.60;;;24.60;56.60;;;;;;9154045;19;20026;-68
2022/08/27 12:53:49;;;;;;;7.45;1.17;;;24.60;56.20;;;;;;9178272;19;20368;-70
2022/08/27 12:57:03;;;;;;;6.57;1.27;;;24.70;56.20;;;;;;9176760;19;20122;-72
2022/08/27 13:00:14;;;;;;;;;;;24.70;56.20;;;;;;9177683;19;20095;-71
2022/08/27 13:03:30;;;;;;;10.45;1.40;;;24.70;56.40;;;;;;9179818;19;19926;-71
2022/08/27 13:06:38;;;;;;;6.45;1.40;;;24.60;56.30;;;;;;9179246;19;20083;-71
2022/08/27 13:09:43;;;;;;;7.93;1.08;;;24.60;57.00;;;;;;9179841;19;20014;-69
2022/08/27 13:12:50;;;;;;;9.30;1.35;;;24.60;56.30;;;;;;9180991;19;20019;-69
2022/08/27 13:16:02;;;;;;;5.43;1.58;;;24.60;56.30;;;;;;9176906;19;20827;-72
2022/08/27 13:19:09;;;;;;;7.53;1.40;;;24.60;56.10;;;;;;9173607;19;20056;-71
2022/08/27 13:22:23;;;;;;;12.60;1.80;;;24.60;56.10;;;;;;9175660;19;20025;-69
2022/08/27 13:25:32;;;;;;;10.15;1.58;;;24.60;55.90;;;;;;9178596;19;20022;-72
2022/08/27 13:28:43;;;;;;;8.75;1.55;;;24.60;56.00;;;;;;9171876;19;20312;-73
2022/08/27 13:31:51;;;;;;;7.07;1.48;;;24.70;55.90;;;;;;9179754;19;20026;-71
2022/08/27 13:34:57;;;;;;;8.63;1.48;;;24.70;55.90;;;;;;9178310;19;20018;-71
2022/08/27 13:38:04;;;;;;;6.55;1.58;;;24.80;55.90;;;;;;9178551;19;20007;-73
2022/08/27 13:41:11;;;;;;;6.22;1.20;;;24.80;55.70;;;;;;9176160;19;20089;-70
2022/08/27 13:44:22;;;;;;;8.18;1.42;;;24.80;55.70;;;;;;9178880;19;20015;-73
2022/08/27 13:47:31;;;;;;;5.57;1.58;;;24.90;55.50;;;;;;9178214;19;20015;-70
2022/08/27 13:50:38;;;;;;;9.07;1.35;;;24.90;55.50;;;;;;9176899;19;20014;-71
2022/08/27 13:57:10;;;;;;;2.55;1.08;;;25.00;55.30;;;;;;9173476;19;20010;-73
2022/08/27 14:00:19;;;;;;;6.60;1.45;;;24.90;55.20;;;;;;9176108;19;20015;-68
2022/08/27 14:03:33;;;;;;;7.88;1.63;;;25.00;55.10;;;;;;9176449;19;20007;-71
2022/08/27 14:06:42;;;;;;;;;;;25.00;55.00;;;;;;9178672;19;20729;-72
2022/08/27 14:09:51;;;;;;;6.72;1.45;;;25.00;55.30;;;;;;9172041;19;19926;-71
2022/08/27 14:13:01;;;;;;;6.72;1.30;;;24.90;55.20;;;;;;9176458;19;20022;-71
2022/08/27 14:16:16;;;;;;;6.25;1.23;;;25.00;55.10;;;;;;9175368;19;20018;-72
2022/08/27 14:19:31;;;;;;;9.48;1.73;;;25.00;54.80;;;;;;9174900;19;20018;-68
2022/08/27 14:22:40;;;;;;;5.47;1.30;;;25.00;54.70;;;;;;9169521;19;20014;-69
2022/08/27 14:25:46;;;;;;;4.78;1.38;;;25.00;54.80;;;;;;9175539;19;20029;-72
2022/08/27 14:28:51;;;;;;;7.22;1.13;;;25.00;54.70;;;;;;9171541;19;20018;-73
2022/08/27 14:31:56;;;;;;;6.18;1.25;;;25.00;54.60;;;;;;9175937;19;20029;-72
2022/08/27 14:35:03;;;;;;;11.93;1.65;;;25.00;54.60;;;;;;9177902;19;20015;-73
2022/08/27 14:38:17;;;;;;;8.23;1.88;;;25.00;54.40;;;;;;9178411;19;20479;-75
2022/08/27 14:41:23;;;;;;;6.30;1.52;;;25.00;54.50;;;;;;9174154;19;20014;-71
2022/08/27 14:44:29;;;;;;;5.60;1.25;;;25.00;54.40;;;;;;9177327;19;20025;-72
2022/08/27 14:47:35;;;;;;;6.40;1.27;;;25.00;54.30;;;;;;9175784;19;20006;-69
2022/08/27 14:50:43;;;;;;;12.98;2.20;;;24.90;54.20;;;;;;9174767;19;20507;-67
2022/08/27 14:53:49;;;;;;;5.78;1.05;;;24.90;54.30;;;;;;9179575;19;20019;-73
2022/08/27 14:56:57;;;;;;;4.18;1.30;;;24.80;54.30;;;;;;9176870;19;20027;-69
2022/08/27 15:00:02;;;;;;;4.90;1.30;;;24.80;54.40;;;;;;9181434;19;20022;-70
2022/08/27 15:03:09;;;;;;;3.47;1.15;;;24.80;54.40;;;;;;9180885;19;20014;-70
2022/08/27 15:06:20;;;;;;;5.55;1.38;;;24.80;54.40;;;;;;9181703;19;20101;-69
2022/08/27 15:09:27;;;;;;;5.35;1.38;;;24.80;54.30;;;;;;9181588;19;20006;-69
2022/08/27 15:12:32;;;;;;;5.18;1.25;;;24.80;54.30;;;;;;9180046;19;20010;-70
2022/08/27 15:15:37;;;;;;;6.65;1.02;;;24.80;54.30;;;;;;9179166;19;20472;-71
2022/08/27 15:18:42;;;;;;;11.13;1.20;;;24.70;54.10;;;;;;9179403;19;20011;-71
2022/08/27 15:22:12;;;;;;;8.85;1.63;;;24.70;54.10;;;;;;9180184;19;20510;-71
2022/08/27 15:25:21;;;;;;;4.38;1.38;;;24.60;54.00;;;;;;9179380;19;20018;-69
2022/08/27 15:28:26;;;;;;;3.47;1.05;;;24.60;54.00;;;;;;9174963;19;20015;-71
2022/08/27 15:31:31;;;;;;;5.45;1.30;;;24.60;54.00;;;;;;9179944;19;20018;-70
2022/08/27 15:34:36;;;;;;;5.47;1.30;;;24.60;53.90;;;;;;9181377;19;20025;-69
2022/08/27 15:37:45;;;;;;;8.05;1.65;;;24.60;53.90;;;;;;9178485;19;20747;-68
2022/08/27 15:40:50;;;;;;;6.88;0.90;;;24.60;53.80;;;;;;9175712;19;20033;-69
2022/08/27 15:43:55;;;;;;;6.90;1.50;;;24.50;53.80;;;;;;9180290;19;20038;-69
2022/08/27 15:47:00;;;;;;;6.03;1.50;;;24.50;53.80;;;;;;9169552;19;20020;-70
2022/08/27 15:50:06;;;;;;;5.53;1.20;;;24.50;53.80;;;;;;9171060;19;20018;-71
2022/08/27 15:53:14;;;;;;;4.22;1.15;;;24.50;53.70;;;;;;9174141;19;20018;-73
2022/08/27 15:56:19;;;;;;;6.57;1.35;;;24.50;53.60;;;;;;9174923;19;20011;-69
2022/08/27 15:59:24;;;;;;;3.28;1.00;;;24.50;53.70;;;;;;9172349;19;20508;-69
2022/08/27 16:02:29;;;;;;;3.88;0.77;;;24.50;53.70;;;;;;9174373;19;20026;-71
2022/08/27 16:05:37;;;;;;;6.90;1.23;;;24.40;53.60;;;;;;9174822;19;20021;-71
2022/08/27 16:08:45;;;;;;;5.35;1.10;;;24.40;53.60;;;;;;9174125;19;20057;-70
2022/08/27 16:11:50;;;;;;;6.22;1.33;;;24.40;53.50;;;;;;9172181;19;20029;-72
2022/08/27 16:14:55;;;;;;;5.72;0.93;;;24.30;53.50;;;;;;9172605;19;20365;-71
2022/08/27 16:18:03;;;;;;;4.70;1.08;;;24.40;53.50;;;;;;9168020;19;20014;-70
2022/08/27 16:21:08;;;;;;;9.02;2.15;;;24.30;53.40;;;;;;9165907;19;20022;-69
2022/08/27 16:24:15;;;;;;;5.13;1.30;;;24.30;53.50;;;;;;9166295;19;20019;-72
2022/08/27 16:27:20;;;;;;;8.20;1.90;;;24.30;53.40;;;;;;9161319;19;20025;-69
2022/08/27 16:30:25;;;;;;;6.95;1.40;;;24.30;53.50;;;;;;9163355;19;20018;-69
2022/08/27 16:33:30;;;;;;;4.50;1.25;;;24.30;53.50;;;;;;9163123;19;20021;-72